Terminal Aerodrome Forecast
Issued by NWS

Home | Current Version | Previous Version | Text Only | Print | Product List | Glossary On
Versions: 1 2 3 4 5 6 7 8 9 10 11 12 13 14 15 16 17 18 19 20 21 22 23 24 25
622
FTUS43 KABR 130530
TAFMBG
TAF
KMBG 130530Z 1306/1406 12010KT P6SM SCT200
     FM131100 13015KT P6SM SCT200
     FM131800 14016G22KT 1SM -SN OVC015
     FM132300 14018G26KT 1SM -FZRASN BLSN OVC010=

USA.gov is the U.S. government's official web portal to all federal, state and local government web resources and services.